sensor_id;sensor_type;location;lat;lon;timestamp;P1;durP1;ratioP1;P2;durP2;ratioP2
25437;SDS011;13364;49.084;9.978;2023-06-26T00:01:52;8.82;;;7.05;;
25437;SDS011;13364;49.084;9.978;2023-06-26T00:04:19;10.93;;;7.43;;
25437;SDS011;13364;49.084;9.978;2023-06-26T00:06:47;12.48;;;7.28;;
25437;SDS011;13364;49.084;9.978;2023-06-26T00:09:14;10.02;;;7.50;;
25437;SDS011;13364;49.084;9.978;2023-06-26T00:11:41;9.65;;;7.50;;
25437;SDS011;13364;49.084;9.978;2023-06-26T00:14:08;7.93;;;6.43;;
25437;SDS011;13364;49.084;9.978;2023-06-26T00:20:05;11.88;;;6.95;;
25437;SDS011;13364;49.084;9.978;2023-06-26T00:22:37;9.77;;;7.38;;
25437;SDS011;13364;49.084;9.978;2023-06-26T00:28:37;8.40;;;7.03;;
25437;SDS011;13364;49.084;9.978;2023-06-26T00:31:04;9.05;;;6.38;;
25437;SDS011;13364;49.084;9.978;2023-06-26T00:33:31;10.82;;;7.55;;
25437;SDS011;13364;49.084;9.978;2023-06-26T00:35:58;8.27;;;7.03;;
25437;SDS011;13364;49.084;9.978;2023-06-26T00:38:34;10.23;;;7.38;;
25437;SDS011;13364;49.084;9.978;2023-06-26T00:41:05;10.15;;;7.28;;
25437;SDS011;13364;49.084;9.978;2023-06-26T00:43:39;8.82;;;6.70;;
25437;SDS011;13364;49.084;9.978;2023-06-26T00:46:09;9.77;;;7.32;;
25437;SDS011;13364;49.084;9.978;2023-06-26T00:48:41;9.40;;;7.15;;
25437;SDS011;13364;49.084;9.978;2023-06-26T00:51:11;10.07;;;7.45;;
25437;SDS011;13364;49.084;9.978;2023-06-26T00:53:39;9.23;;;7.22;;
25437;SDS011;13364;49.084;9.978;2023-06-26T00:56:06;8.00;;;6.32;;
25437;SDS011;13364;49.084;9.978;2023-06-26T00:58:35;9.25;;;7.65;;
25437;SDS011;13364;49.084;9.978;2023-06-26T01:01:02;11.43;;;7.13;;
25437;SDS011;13364;49.084;9.978;2023-06-26T01:03:34;9.07;;;7.13;;
25437;SDS011;13364;49.084;9.978;2023-06-26T01:06:03;9.13;;;6.63;;
25437;SDS011;13364;49.084;9.978;2023-06-26T01:08:31;9.88;;;6.78;;
25437;SDS011;13364;49.084;9.978;2023-06-26T01:10:58;8.93;;;7.43;;
25437;SDS011;13364;49.084;9.978;2023-06-26T01:13:26;9.90;;;7.00;;
25437;SDS011;13364;49.084;9.978;2023-06-26T01:15:55;8.65;;;6.65;;
25437;SDS011;13364;49.084;9.978;2023-06-26T01:18:25;9.52;;;7.55;;
25437;SDS011;13364;49.084;9.978;2023-06-26T01:20:53;11.25;;;7.18;;
25437;SDS011;13364;49.084;9.978;2023-06-26T01:23:22;9.30;;;7.10;;
25437;SDS011;13364;49.084;9.978;2023-06-26T01:26:21;7.90;;;6.70;;
25437;SDS011;13364;49.084;9.978;2023-06-26T01:28:50;10.57;;;6.38;;
25437;SDS011;13364;49.084;9.978;2023-06-26T01:31:19;10.00;;;7.38;;
25437;SDS011;13364;49.084;9.978;2023-06-26T01:33:47;9.52;;;7.00;;
25437;SDS011;13364;49.084;9.978;2023-06-26T01:36:18;9.35;;;6.80;;
25437;SDS011;13364;49.084;9.978;2023-06-26T01:38:46;9.93;;;7.32;;
25437;SDS011;13364;49.084;9.978;2023-06-26T01:41:13;9.35;;;7.38;;
25437;SDS011;13364;49.084;9.978;2023-06-26T01:46:54;9.60;;;6.80;;
25437;SDS011;13364;49.084;9.978;2023-06-26T01:54:49;9.88;;;7.47;;
25437;SDS011;13364;49.084;9.978;2023-06-26T01:57:20;9.63;;;7.50;;
25437;SDS011;13364;49.084;9.978;2023-06-26T01:59:50;12.57;;;7.80;;
25437;SDS011;13364;49.084;9.978;2023-06-26T02:02:19;10.02;;;7.80;;
25437;SDS011;13364;49.084;9.978;2023-06-26T02:04:46;9.43;;;7.00;;
25437;SDS011;13364;49.084;9.978;2023-06-26T02:07:14;10.85;;;7.10;;
25437;SDS011;13364;49.084;9.978;2023-06-26T02:09:42;9.68;;;6.65;;
25437;SDS011;13364;49.084;9.978;2023-06-26T02:12:10;11.15;;;7.25;;
25437;SDS011;13364;49.084;9.978;2023-06-26T02:14:37;9.25;;;7.40;;
25437;SDS011;13364;49.084;9.978;2023-06-26T02:17:04;9.57;;;7.45;;
25437;SDS011;13364;49.084;9.978;2023-06-26T02:19:31;10.63;;;7.60;;
25437;SDS011;13364;49.084;9.978;2023-06-26T02:21:58;9.18;;;7.10;;
25437;SDS011;13364;49.084;9.978;2023-06-26T02:24:25;11.85;;;7.70;;
25437;SDS011;13364;49.084;9.978;2023-06-26T02:26:57;8.27;;;6.72;;
25437;SDS011;13364;49.084;9.978;2023-06-26T02:29:24;9.13;;;7.25;;
25437;SDS011;13364;49.084;9.978;2023-06-26T02:31:51;12.25;;;7.70;;
25437;SDS011;13364;49.084;9.978;2023-06-26T02:34:18;9.63;;;7.60;;
25437;SDS011;13364;49.084;9.978;2023-06-26T02:36:45;9.73;;;7.38;;
25437;SDS011;13364;49.084;9.978;2023-06-26T02:39:13;9.25;;;7.40;;
25437;SDS011;13364;49.084;9.978;2023-06-26T02:41:41;9.40;;;7.35;;
25437;SDS011;13364;49.084;9.978;2023-06-26T02:44:08;10.00;;;7.50;;
25437;SDS011;13364;49.084;9.978;2023-06-26T02:46:35;11.80;;;8.27;;
25437;SDS011;13364;49.084;9.978;2023-06-26T02:49:02;9.95;;;7.30;;
25437;SDS011;13364;49.084;9.978;2023-06-26T02:51:31;9.20;;;7.80;;
25437;SDS011;13364;49.084;9.978;2023-06-26T02:54:03;12.32;;;7.40;;
25437;SDS011;13364;49.084;9.978;2023-06-26T02:59:22;11.70;;;8.00;;
25437;SDS011;13364;49.084;9.978;2023-06-26T03:01:50;9.75;;;7.75;;
25437;SDS011;13364;49.084;9.978;2023-06-26T03:04:17;9.15;;;6.97;;
25437;SDS011;13364;49.084;9.978;2023-06-26T03:06:48;10.93;;;7.78;;
25437;SDS011;13364;49.084;9.978;2023-06-26T03:09:15;11.65;;;7.88;;
25437;SDS011;13364;49.084;9.978;2023-06-26T03:11:43;11.82;;;8.20;;
25437;SDS011;13364;49.084;9.978;2023-06-26T03:14:11;8.68;;;7.03;;
25437;SDS011;13364;49.084;9.978;2023-06-26T03:16:41;10.82;;;8.05;;
25437;SDS011;13364;49.084;9.978;2023-06-26T03:19:08;10.15;;;7.30;;
25437;SDS011;13364;49.084;9.978;2023-06-26T03:21:55;10.48;;;8.23;;
25437;SDS011;13364;49.084;9.978;2023-06-26T03:24:22;11.65;;;7.82;;
25437;SDS011;13364;49.084;9.978;2023-06-26T03:26:49;10.90;;;7.80;;
25437;SDS011;13364;49.084;9.978;2023-06-26T03:29:17;10.63;;;7.70;;
25437;SDS011;13364;49.084;9.978;2023-06-26T03:31:45;10.30;;;8.43;;
25437;SDS011;13364;49.084;9.978;2023-06-26T03:34:12;11.60;;;7.93;;
25437;SDS011;13364;49.084;9.978;2023-06-26T03:36:39;13.65;;;7.88;;
25437;SDS011;13364;49.084;9.978;2023-06-26T03:39:07;10.20;;;7.65;;
25437;SDS011;13364;49.084;9.978;2023-06-26T03:41:35;10.85;;;7.93;;
25437;SDS011;13364;49.084;9.978;2023-06-26T03:44:03;9.77;;;7.53;;
25437;SDS011;13364;49.084;9.978;2023-06-26T03:46:36;10.48;;;7.85;;
25437;SDS011;13364;49.084;9.978;2023-06-26T03:49:04;10.32;;;7.38;;
25437;SDS011;13364;49.084;9.978;2023-06-26T03:51:31;9.57;;;6.57;;
25437;SDS011;13364;49.084;9.978;2023-06-26T03:53:59;8.57;;;7.20;;
25437;SDS011;13364;49.084;9.978;2023-06-26T03:56:26;9.60;;;6.97;;
25437;SDS011;13364;49.084;9.978;2023-06-26T03:58:53;9.30;;;7.70;;
25437;SDS011;13364;49.084;9.978;2023-06-26T04:01:20;7.38;;;6.40;;
25437;SDS011;13364;49.084;9.978;2023-06-26T04:03:48;8.15;;;7.20;;
25437;SDS011;13364;49.084;9.978;2023-06-26T04:06:15;9.80;;;7.50;;
25437;SDS011;13364;49.084;9.978;2023-06-26T04:08:43;9.07;;;6.70;;
25437;SDS011;13364;49.084;9.978;2023-06-26T04:11:10;9.35;;;7.25;;
25437;SDS011;13364;49.084;9.978;2023-06-26T04:13:37;9.43;;;6.97;;
25437;SDS011;13364;49.084;9.978;2023-06-26T04:16:04;9.75;;;7.63;;
25437;SDS011;13364;49.084;9.978;2023-06-26T04:18:32;9.95;;;7.78;;
25437;SDS011;13364;49.084;9.978;2023-06-26T04:21:09;9.55;;;7.25;;
25437;SDS011;13364;49.084;9.978;2023-06-26T04:23:38;9.07;;;7.25;;
25437;SDS011;13364;49.084;9.978;2023-06-26T04:26:06;9.23;;;6.78;;
25437;SDS011;13364;49.084;9.978;2023-06-26T04:28:34;8.52;;;7.03;;
25437;SDS011;13364;49.084;9.978;2023-06-26T04:31:02;10.13;;;6.82;;
25437;SDS011;13364;49.084;9.978;2023-06-26T04:33:32;11.02;;;7.10;;
25437;SDS011;13364;49.084;9.978;2023-06-26T04:35:59;8.38;;;7.22;;
25437;SDS011;13364;49.084;9.978;2023-06-26T04:38:30;9.40;;;7.07;;
25437;SDS011;13364;49.084;9.978;2023-06-26T04:40:58;12.52;;;6.93;;
25437;SDS011;13364;49.084;9.978;2023-06-26T04:43:31;9.15;;;7.03;;
25437;SDS011;13364;49.084;9.978;2023-06-26T04:46:01;9.73;;;6.57;;
25437;SDS011;13364;49.084;9.978;2023-06-26T04:48:30;9.70;;;6.82;;
25437;SDS011;13364;49.084;9.978;2023-06-26T04:50:57;9.70;;;6.82;;
25437;SDS011;13364;49.084;9.978;2023-06-26T04:53:25;9.27;;;7.35;;
25437;SDS011;13364;49.084;9.978;2023-06-26T04:55:52;10.38;;;6.90;;
25437;SDS011;13364;49.084;9.978;2023-06-26T04:58:19;8.43;;;6.68;;
25437;SDS011;13364;49.084;9.978;2023-06-26T05:00:47;10.15;;;6.95;;
25437;SDS011;13364;49.084;9.978;2023-06-26T05:03:17;9.82;;;6.68;;
25437;SDS011;13364;49.084;9.978;2023-06-26T05:08:38;8.90;;;7.43;;
25437;SDS011;13364;49.084;9.978;2023-06-26T05:11:05;9.05;;;6.53;;
25437;SDS011;13364;49.084;9.978;2023-06-26T05:13:32;8.90;;;6.90;;
25437;SDS011;13364;49.084;9.978;2023-06-26T05:15:59;8.75;;;7.13;;
25437;SDS011;13364;49.084;9.978;2023-06-26T05:21:20;12.90;;;7.10;;
25437;SDS011;13364;49.084;9.978;2023-06-26T05:23:48;9.90;;;7.47;;
25437;SDS011;13364;49.084;9.978;2023-06-26T05:26:17;8.30;;;6.50;;
25437;SDS011;13364;49.084;9.978;2023-06-26T05:28:44;9.50;;;6.82;;
25437;SDS011;13364;49.084;9.978;2023-06-26T05:31:15;10.95;;;6.78;;
25437;SDS011;13364;49.084;9.978;2023-06-26T05:33:43;10.93;;;6.95;;
25437;SDS011;13364;49.084;9.978;2023-06-26T05:36:11;9.88;;;6.72;;
25437;SDS011;13364;49.084;9.978;2023-06-26T05:38:40;10.07;;;7.15;;
25437;SDS011;13364;49.084;9.978;2023-06-26T05:41:07;11.13;;;7.03;;
25437;SDS011;13364;49.084;9.978;2023-06-26T05:43:35;8.23;;;6.32;;
25437;SDS011;13364;49.084;9.978;2023-06-26T05:46:02;9.00;;;6.88;;
25437;SDS011;13364;49.084;9.978;2023-06-26T05:48:29;7.82;;;6.65;;
25437;SDS011;13364;49.084;9.978;2023-06-26T05:50:56;9.95;;;7.10;;
25437;SDS011;13364;49.084;9.978;2023-06-26T05:53:24;9.57;;;6.80;;
25437;SDS011;13364;49.084;9.978;2023-06-26T05:55:51;9.32;;;7.07;;
25437;SDS011;13364;49.084;9.978;2023-06-26T05:58:18;8.70;;;7.22;;
25437;SDS011;13364;49.084;9.978;2023-06-26T06:00:47;8.20;;;7.10;;
25437;SDS011;13364;49.084;9.978;2023-06-26T06:03:14;10.77;;;6.55;;
25437;SDS011;13364;49.084;9.978;2023-06-26T06:05:41;8.10;;;6.85;;
25437;SDS011;13364;49.084;9.978;2023-06-26T06:08:08;9.20;;;7.00;;
25437;SDS011;13364;49.084;9.978;2023-06-26T06:10:35;8.70;;;7.10;;
25437;SDS011;13364;49.084;9.978;2023-06-26T06:13:03;8.20;;;6.35;;
25437;SDS011;13364;49.084;9.978;2023-06-26T06:15:30;9.07;;;7.70;;
25437;SDS011;13364;49.084;9.978;2023-06-26T06:17:57;8.55;;;6.93;;
25437;SDS011;13364;49.084;9.978;2023-06-26T06:20:24;12.80;;;7.47;;
25437;SDS011;13364;49.084;9.978;2023-06-26T06:22:51;11.00;;;7.72;;
25437;SDS011;13364;49.084;9.978;2023-06-26T06:25:27;10.35;;;8.25;;
25437;SDS011;13364;49.084;9.978;2023-06-26T06:27:54;10.43;;;7.53;;
25437;SDS011;13364;49.084;9.978;2023-06-26T06:30:21;8.50;;;6.75;;
25437;SDS011;13364;49.084;9.978;2023-06-26T06:33:08;10.95;;;7.45;;
25437;SDS011;13364;49.084;9.978;2023-06-26T06:35:35;8.57;;;7.03;;
25437;SDS011;13364;49.084;9.978;2023-06-26T06:38:02;9.32;;;7.35;;
25437;SDS011;13364;49.084;9.978;2023-06-26T06:40:29;8.75;;;7.28;;
25437;SDS011;13364;49.084;9.978;2023-06-26T06:42:56;7.90;;;7.10;;
25437;SDS011;13364;49.084;9.978;2023-06-26T06:45:23;9.15;;;7.45;;
25437;SDS011;13364;49.084;9.978;2023-06-26T06:47:50;10.80;;;7.72;;
25437;SDS011;13364;49.084;9.978;2023-06-26T06:50:17;8.52;;;7.05;;
25437;SDS011;13364;49.084;9.978;2023-06-26T06:52:45;9.18;;;7.82;;
25437;SDS011;13364;49.084;9.978;2023-06-26T06:55:12;9.38;;;7.47;;
25437;SDS011;13364;49.084;9.978;2023-06-26T06:57:39;9.40;;;7.88;;
25437;SDS011;13364;49.084;9.978;2023-06-26T07:00:07;13.20;;;8.13;;
25437;SDS011;13364;49.084;9.978;2023-06-26T07:05:04;11.70;;;7.65;;
25437;SDS011;13364;49.084;9.978;2023-06-26T07:07:32;11.60;;;7.95;;
25437;SDS011;13364;49.084;9.978;2023-06-26T07:10:07;8.38;;;7.47;;
25437;SDS011;13364;49.084;9.978;2023-06-26T07:12:40;11.20;;;8.32;;
25437;SDS011;13364;49.084;9.978;2023-06-26T07:15:07;8.45;;;7.57;;
25437;SDS011;13364;49.084;9.978;2023-06-26T07:17:35;8.32;;;7.28;;
25437;SDS011;13364;49.084;9.978;2023-06-26T07:20:04;11.10;;;9.05;;
25437;SDS011;13364;49.084;9.978;2023-06-26T07:26:00;9.85;;;7.63;;
25437;SDS011;13364;49.084;9.978;2023-06-26T07:28:27;14.40;;;7.60;;
25437;SDS011;13364;49.084;9.978;2023-06-26T07:30:54;9.98;;;8.07;;
25437;SDS011;13364;49.084;9.978;2023-06-26T07:33:22;11.10;;;7.72;;
25437;SDS011;13364;49.084;9.978;2023-06-26T07:35:49;12.15;;;8.35;;
25437;SDS011;13364;49.084;9.978;2023-06-26T07:38:16;12.35;;;7.20;;
25437;SDS011;13364;49.084;9.978;2023-06-26T07:40:43;8.75;;;7.35;;
25437;SDS011;13364;49.084;9.978;2023-06-26T07:43:10;13.35;;;8.18;;
25437;SDS011;13364;49.084;9.978;2023-06-26T07:45:37;13.68;;;7.85;;
25437;SDS011;13364;49.084;9.978;2023-06-26T07:48:05;12.55;;;7.10;;
25437;SDS011;13364;49.084;9.978;2023-06-26T07:50:33;9.93;;;7.68;;
25437;SDS011;13364;49.084;9.978;2023-06-26T07:53:00;10.10;;;7.55;;
25437;SDS011;13364;49.084;9.978;2023-06-26T07:55:28;8.82;;;6.88;;
25437;SDS011;13364;49.084;9.978;2023-06-26T07:57:55;13.57;;;7.28;;
25437;SDS011;13364;49.084;9.978;2023-06-26T08:00:23;12.50;;;7.55;;
25437;SDS011;13364;49.084;9.978;2023-06-26T08:02:51;9.73;;;7.20;;
25437;SDS011;13364;49.084;9.978;2023-06-26T08:05:19;9.23;;;7.70;;
25437;SDS011;13364;49.084;9.978;2023-06-26T08:07:47;8.35;;;6.60;;
25437;SDS011;13364;49.084;9.978;2023-06-26T08:14:35;11.15;;;7.07;;
25437;SDS011;13364;49.084;9.978;2023-06-26T08:17:02;9.15;;;7.93;;
25437;SDS011;13364;49.084;9.978;2023-06-26T08:19:29;9.02;;;7.45;;
25437;SDS011;13364;49.084;9.978;2023-06-26T08:21:56;7.72;;;6.93;;
25437;SDS011;13364;49.084;9.978;2023-06-26T08:24:23;8.70;;;7.80;;
25437;SDS011;13364;49.084;9.978;2023-06-26T08:26:50;9.85;;;7.47;;
25437;SDS011;13364;49.084;9.978;2023-06-26T08:29:17;10.02;;;7.93;;
25437;SDS011;13364;49.084;9.978;2023-06-26T08:31:44;11.82;;;8.38;;
25437;SDS011;13364;49.084;9.978;2023-06-26T08:34:12;7.88;;;7.13;;
25437;SDS011;13364;49.084;9.978;2023-06-26T08:36:39;8.43;;;6.90;;
25437;SDS011;13364;49.084;9.978;2023-06-26T08:39:06;9.43;;;7.35;;
25437;SDS011;13364;49.084;9.978;2023-06-26T08:41:51;10.87;;;7.57;;
25437;SDS011;13364;49.084;9.978;2023-06-26T08:44:19;7.47;;;6.68;;
25437;SDS011;13364;49.084;9.978;2023-06-26T08:46:50;9.52;;;7.78;;
25437;SDS011;13364;49.084;9.978;2023-06-26T08:49:20;8.15;;;7.18;;
25437;SDS011;13364;49.084;9.978;2023-06-26T08:51:52;8.63;;;6.85;;
25437;SDS011;13364;49.084;9.978;2023-06-26T08:54:27;8.25;;;7.32;;
25437;SDS011;13364;49.084;9.978;2023-06-26T08:57:00;11.60;;;7.63;;
25437;SDS011;13364;49.084;9.978;2023-06-26T08:59:28;8.98;;;7.10;;
25437;SDS011;13364;49.084;9.978;2023-06-26T09:01:55;8.93;;;7.22;;
25437;SDS011;13364;49.084;9.978;2023-06-26T09:04:23;8.27;;;7.32;;
25437;SDS011;13364;49.084;9.978;2023-06-26T09:06:50;10.10;;;7.38;;
25437;SDS011;13364;49.084;9.978;2023-06-26T09:09:17;7.90;;;6.68;;
25437;SDS011;13364;49.084;9.978;2023-06-26T09:11:44;9.60;;;7.32;;
25437;SDS011;13364;49.084;9.978;2023-06-26T09:14:12;8.20;;;6.40;;
25437;SDS011;13364;49.084;9.978;2023-06-26T09:16:41;8.27;;;7.00;;
25437;SDS011;13364;49.084;9.978;2023-06-26T09:19:11;8.73;;;7.00;;
25437;SDS011;13364;49.084;9.978;2023-06-26T09:21:39;10.45;;;6.72;;
25437;SDS011;13364;49.084;9.978;2023-06-26T09:24:08;7.07;;;6.38;;
25437;SDS011;13364;49.084;9.978;2023-06-26T09:26:36;7.32;;;6.63;;
25437;SDS011;13364;49.084;9.978;2023-06-26T09:29:06;8.00;;;6.93;;
25437;SDS011;13364;49.084;9.978;2023-06-26T09:31:33;7.72;;;6.28;;
25437;SDS011;13364;49.084;9.978;2023-06-26T09:34:07;7.13;;;5.30;;
25437;SDS011;13364;49.084;9.978;2023-06-26T09:36:35;6.65;;;6.05;;
25437;SDS011;13364;49.084;9.978;2023-06-26T09:39:06;10.68;;;6.00;;
25437;SDS011;13364;49.084;9.978;2023-06-26T09:41:40;8.05;;;5.13;;
25437;SDS011;13364;49.084;9.978;2023-06-26T09:44:10;7.40;;;5.57;;
25437;SDS011;13364;49.084;9.978;2023-06-26T09:46:39;6.75;;;5.82;;
25437;SDS011;13364;49.084;9.978;2023-06-26T09:49:08;6.38;;;5.57;;
25437;SDS011;13364;49.084;9.978;2023-06-26T09:51:38;6.97;;;5.47;;
25437;SDS011;13364;49.084;9.978;2023-06-26T09:54:08;9.27;;;6.20;;
25437;SDS011;13364;49.084;9.978;2023-06-26T09:56:36;7.33;;;5.80;;
25437;SDS011;13364;49.084;9.978;2023-06-26T09:59:03;6.22;;;5.63;;
25437;SDS011;13364;49.084;9.978;2023-06-26T10:01:32;6.82;;;6.13;;
25437;SDS011;13364;49.084;9.978;2023-06-26T10:04:00;7.10;;;6.15;;
25437;SDS011;13364;49.084;9.978;2023-06-26T10:06:40;5.82;;;4.82;;
25437;SDS011;13364;49.084;9.978;2023-06-26T10:09:19;7.40;;;5.35;;
25437;SDS011;13364;49.084;9.978;2023-06-26T10:11:49;5.20;;;4.70;;
25437;SDS011;13364;49.084;9.978;2023-06-26T10:14:33;5.25;;;4.75;;
25437;SDS011;13364;49.084;9.978;2023-06-26T10:17:13;7.07;;;5.28;;
25437;SDS011;13364;49.084;9.978;2023-06-26T10:19:43;5.80;;;5.25;;
25437;SDS011;13364;49.084;9.978;2023-06-26T10:22:12;5.47;;;4.97;;
25437;SDS011;13364;49.084;9.978;2023-06-26T10:24:45;5.38;;;4.88;;
25437;SDS011;13364;49.084;9.978;2023-06-26T10:27:17;6.00;;;5.07;;
25437;SDS011;13364;49.084;9.978;2023-06-26T10:29:47;6.22;;;5.63;;
25437;SDS011;13364;49.084;9.978;2023-06-26T10:32:20;7.38;;;5.10;;
25437;SDS011;13364;49.084;9.978;2023-06-26T10:34:50;6.47;;;5.60;;
25437;SDS011;13364;49.084;9.978;2023-06-26T10:37:18;7.03;;;6.10;;
25437;SDS011;13364;49.084;9.978;2023-06-26T10:39:48;6.45;;;5.85;;
25437;SDS011;13364;49.084;9.978;2023-06-26T10:42:19;8.32;;;6.03;;
25437;SDS011;13364;49.084;9.978;2023-06-26T10:44:55;9.40;;;5.63;;
25437;SDS011;13364;49.084;9.978;2023-06-26T10:47:28;7.70;;;5.95;;
25437;SDS011;13364;49.084;9.978;2023-06-26T10:50:18;7.10;;;6.00;;
25437;SDS011;13364;49.084;9.978;2023-06-26T11:01:26;6.85;;;5.60;;
25437;SDS011;13364;49.084;9.978;2023-06-26T11:06:28;5.60;;;5.07;;
25437;SDS011;13364;49.084;9.978;2023-06-26T11:09:00;6.67;;;5.90;;
25437;SDS011;13364;49.084;9.978;2023-06-26T11:14:18;9.07;;;6.20;;
25437;SDS011;13364;49.084;9.978;2023-06-26T11:16:47;5.90;;;5.40;;
25437;SDS011;13364;49.084;9.978;2023-06-26T11:19:18;11.70;;;6.63;;
25437;SDS011;13364;49.084;9.978;2023-06-26T11:21:47;6.75;;;6.05;;
25437;SDS011;13364;49.084;9.978;2023-06-26T11:24:14;6.65;;;5.95;;
25437;SDS011;13364;49.084;9.978;2023-06-26T11:26:42;6.88;;;6.10;;
25437;SDS011;13364;49.084;9.978;2023-06-26T11:29:11;8.57;;;5.73;;
25437;SDS011;13364;49.084;9.978;2023-06-26T11:31:40;6.50;;;5.90;;
25437;SDS011;13364;49.084;9.978;2023-06-26T11:36:38;7.78;;;5.97;;
25437;SDS011;13364;49.084;9.978;2023-06-26T11:39:08;9.23;;;5.75;;
25437;SDS011;13364;49.084;9.978;2023-06-26T11:41:36;8.05;;;6.40;;
25437;SDS011;13364;49.084;9.978;2023-06-26T11:44:04;6.50;;;5.90;;
25437;SDS011;13364;49.084;9.978;2023-06-26T11:50:51;6.78;;;6.18;;
25437;SDS011;13364;49.084;9.978;2023-06-26T11:53:18;6.40;;;5.80;;
25437;SDS011;13364;49.084;9.978;2023-06-26T11:55:45;10.82;;;6.78;;
25437;SDS011;13364;49.084;9.978;2023-06-26T11:58:12;11.07;;;6.25;;
25437;SDS011;13364;49.084;9.978;2023-06-26T12:00:43;8.20;;;6.57;;
25437;SDS011;13364;49.084;9.978;2023-06-26T12:03:10;6.93;;;6.22;;
25437;SDS011;13364;49.084;9.978;2023-06-26T12:05:37;8.48;;;6.07;;
25437;SDS011;13364;49.084;9.978;2023-06-26T12:08:06;8.23;;;6.68;;
25437;SDS011;13364;49.084;9.978;2023-06-26T12:10:34;7.57;;;6.78;;
25437;SDS011;13364;49.084;9.978;2023-06-26T12:13:02;6.70;;;6.03;;
25437;SDS011;13364;49.084;9.978;2023-06-26T12:15:29;8.07;;;6.38;;
25437;SDS011;13364;49.084;9.978;2023-06-26T12:17:57;8.18;;;6.72;;
25437;SDS011;13364;49.084;9.978;2023-06-26T12:20:24;7.43;;;6.60;;
25437;SDS011;13364;49.084;9.978;2023-06-26T12:22:52;8.70;;;6.97;;
25437;SDS011;13364;49.084;9.978;2023-06-26T12:25:22;11.07;;;7.10;;
25437;SDS011;13364;49.084;9.978;2023-06-26T12:27:50;10.35;;;6.25;;
25437;SDS011;13364;49.084;9.978;2023-06-26T12:30:17;7.68;;;6.97;;
25437;SDS011;13364;49.084;9.978;2023-06-26T12:32:45;7.47;;;6.65;;
25437;SDS011;13364;49.084;9.978;2023-06-26T12:35:15;7.65;;;6.88;;
25437;SDS011;13364;49.084;9.978;2023-06-26T12:37:43;10.98;;;7.25;;
25437;SDS011;13364;49.084;9.978;2023-06-26T12:40:18;7.85;;;7.05;;
25437;SDS011;13364;49.084;9.978;2023-06-26T12:42:49;11.13;;;7.10;;
25437;SDS011;13364;49.084;9.978;2023-06-26T12:45:16;9.20;;;7.00;;
25437;SDS011;13364;49.084;9.978;2023-06-26T12:47:46;9.70;;;7.38;;
25437;SDS011;13364;49.084;9.978;2023-06-26T12:50:13;8.68;;;7.75;;
25437;SDS011;13364;49.084;9.978;2023-06-26T12:52:40;8.70;;;7.57;;
25437;SDS011;13364;49.084;9.978;2023-06-26T12:55:09;9.15;;;7.50;;
25437;SDS011;13364;49.084;9.978;2023-06-26T12:57:36;9.00;;;7.95;;
25437;SDS011;13364;49.084;9.978;2023-06-26T13:00:04;9.48;;;6.93;;
25437;SDS011;13364;49.084;9.978;2023-06-26T13:02:32;8.00;;;7.07;;
25437;SDS011;13364;49.084;9.978;2023-06-26T13:04:59;8.73;;;7.18;;
25437;SDS011;13364;49.084;9.978;2023-06-26T13:07:26;10.93;;;7.28;;
25437;SDS011;13364;49.084;9.978;2023-06-26T13:09:54;8.40;;;7.60;;
25437;SDS011;13364;49.084;9.978;2023-06-26T13:12:22;8.02;;;6.82;;
25437;SDS011;13364;49.084;9.978;2023-06-26T13:14:49;7.68;;;6.88;;
25437;SDS011;13364;49.084;9.978;2023-06-26T13:17:17;8.13;;;7.00;;
25437;SDS011;13364;49.084;9.978;2023-06-26T13:19:44;8.85;;;7.57;;
25437;SDS011;13364;49.084;9.978;2023-06-26T13:22:11;8.38;;;7.53;;
25437;SDS011;13364;49.084;9.978;2023-06-26T13:24:38;8.77;;;7.43;;
25437;SDS011;13364;49.084;9.978;2023-06-26T13:27:06;11.90;;;8.32;;
25437;SDS011;13364;49.084;9.978;2023-06-26T13:29:33;8.93;;;7.20;;
25437;SDS011;13364;49.084;9.978;2023-06-26T13:32:00;9.77;;;7.90;;
25437;SDS011;13364;49.084;9.978;2023-06-26T13:34:27;9.40;;;6.78;;
25437;SDS011;13364;49.084;9.978;2023-06-26T13:36:54;9.10;;;7.60;;
25437;SDS011;13364;49.084;9.978;2023-06-26T13:39:22;10.43;;;7.43;;
25437;SDS011;13364;49.084;9.978;2023-06-26T13:41:49;8.18;;;7.38;;
25437;SDS011;13364;49.084;9.978;2023-06-26T13:44:16;10.43;;;8.13;;
25437;SDS011;13364;49.084;9.978;2023-06-26T13:47:01;7.68;;;6.88;;
25437;SDS011;13364;49.084;9.978;2023-06-26T13:49:28;11.82;;;7.65;;
25437;SDS011;13364;49.084;9.978;2023-06-26T13:51:55;8.38;;;7.07;;
25437;SDS011;13364;49.084;9.978;2023-06-26T13:54:22;8.30;;;7.47;;
25437;SDS011;13364;49.084;9.978;2023-06-26T13:56:49;10.25;;;7.30;;
25437;SDS011;13364;49.084;9.978;2023-06-26T13:59:16;8.75;;;7.95;;
25437;SDS011;13364;49.084;9.978;2023-06-26T14:01:47;10.80;;;8.43;;
25437;SDS011;13364;49.084;9.978;2023-06-26T14:04:14;10.80;;;7.78;;
25437;SDS011;13364;49.084;9.978;2023-06-26T14:06:41;11.77;;;8.40;;
25437;SDS011;13364;49.084;9.978;2023-06-26T14:09:08;9.27;;;7.53;;
25437;SDS011;13364;49.084;9.978;2023-06-26T14:11:35;8.73;;;7.60;;
25437;SDS011;13364;49.084;9.978;2023-06-26T14:14:03;8.70;;;7.20;;
25437;SDS011;13364;49.084;9.978;2023-06-26T14:16:30;11.57;;;7.80;;
25437;SDS011;13364;49.084;9.978;2023-06-26T14:18:58;11.20;;;7.88;;
25437;SDS011;13364;49.084;9.978;2023-06-26T14:21:25;9.23;;;8.27;;
25437;SDS011;13364;49.084;9.978;2023-06-26T14:23:57;8.82;;;7.80;;
25437;SDS011;13364;49.084;9.978;2023-06-26T14:26:24;9.20;;;7.75;;
25437;SDS011;13364;49.084;9.978;2023-06-26T14:28:51;8.77;;;7.15;;
25437;SDS011;13364;49.084;9.978;2023-06-26T14:31:18;9.18;;;7.35;;
25437;SDS011;13364;49.084;9.978;2023-06-26T14:38:04;9.88;;;8.70;;
25437;SDS011;13364;49.084;9.978;2023-06-26T14:40:31;9.68;;;6.97;;
25437;SDS011;13364;49.084;9.978;2023-06-26T14:42:58;7.85;;;6.90;;
25437;SDS011;13364;49.084;9.978;2023-06-26T14:45:26;7.15;;;6.45;;
25437;SDS011;13364;49.084;9.978;2023-06-26T14:47:53;8.85;;;6.47;;
25437;SDS011;13364;49.084;9.978;2023-06-26T14:50:21;8.48;;;7.57;;
25437;SDS011;13364;49.084;9.978;2023-06-26T14:52:49;9.40;;;6.85;;
25437;SDS011;13364;49.084;9.978;2023-06-26T14:55:16;8.95;;;6.93;;
25437;SDS011;13364;49.084;9.978;2023-06-26T14:57:43;7.28;;;6.30;;
25437;SDS011;13364;49.084;9.978;2023-06-26T15:00:11;8.98;;;6.03;;
25437;SDS011;13364;49.084;9.978;2023-06-26T15:02:38;10.32;;;5.88;;
25437;SDS011;13364;49.084;9.978;2023-06-26T15:05:06;9.23;;;6.10;;
25437;SDS011;13364;49.084;9.978;2023-06-26T15:07:33;7.93;;;6.00;;
25437;SDS011;13364;49.084;9.978;2023-06-26T15:10:00;11.80;;;6.10;;
25437;SDS011;13364;49.084;9.978;2023-06-26T15:12:27;7.15;;;5.63;;
25437;SDS011;13364;49.084;9.978;2023-06-26T15:14:55;8.70;;;6.22;;
25437;SDS011;13364;49.084;9.978;2023-06-26T15:21:40;8.45;;;4.97;;
25437;SDS011;13364;49.084;9.978;2023-06-26T15:24:08;6.75;;;5.32;;
25437;SDS011;13364;49.084;9.978;2023-06-26T15:34:06;4.68;;;4.10;;
25437;SDS011;13364;49.084;9.978;2023-06-26T15:36:33;4.63;;;4.00;;
25437;SDS011;13364;49.084;9.978;2023-06-26T15:39:00;7.53;;;4.30;;
25437;SDS011;13364;49.084;9.978;2023-06-26T15:41:27;7.20;;;4.72;;
25437;SDS011;13364;49.084;9.978;2023-06-26T15:43:54;5.13;;;4.00;;
25437;SDS011;13364;49.084;9.978;2023-06-26T15:46:21;5.68;;;3.40;;
25437;SDS011;13364;49.084;9.978;2023-06-26T15:48:48;6.93;;;3.72;;
25437;SDS011;13364;49.084;9.978;2023-06-26T15:51:15;4.78;;;3.70;;
25437;SDS011;13364;49.084;9.978;2023-06-26T15:53:42;5.28;;;3.90;;
25437;SDS011;13364;49.084;9.978;2023-06-26T15:56:10;4.35;;;3.80;;
25437;SDS011;13364;49.084;9.978;2023-06-26T15:58:38;4.78;;;3.63;;
25437;SDS011;13364;49.084;9.978;2023-06-26T16:01:11;4.63;;;3.85;;
25437;SDS011;13364;49.084;9.978;2023-06-26T16:03:39;5.32;;;4.40;;